sensor_id;sensor_type;location;lat;lon;timestamp;P1;durP1;ratioP1;P2;durP2;ratioP2
75628;SDS011;64213;46.452;16.994;2023-03-05T00:00:18;10.82;;;3.35;;
75628;SDS011;64213;46.452;16.994;2023-03-05T00:03:20;11.75;;;4.15;;
75628;SDS011;64213;46.452;16.994;2023-03-05T00:06:24;12.23;;;3.62;;
75628;SDS011;64213;46.452;16.994;2023-03-05T00:09:27;6.60;;;2.53;;
75628;SDS011;64213;46.452;16.994;2023-03-05T00:12:29;10.40;;;3.60;;
75628;SDS011;64213;46.452;16.994;2023-03-05T00:15:31;3.67;;;1.25;;
75628;SDS011;64213;46.452;16.994;2023-03-05T00:18:33;10.80;;;3.65;;
75628;SDS011;64213;46.452;16.994;2023-03-05T00:21:37;8.98;;;2.60;;
75628;SDS011;64213;46.452;16.994;2023-03-05T00:24:41;10.70;;;3.20;;
75628;SDS011;64213;46.452;16.994;2023-03-05T00:27:43;18.85;;;3.97;;
75628;SDS011;64213;46.452;16.994;2023-03-05T00:30:45;9.13;;;2.78;;
75628;SDS011;64213;46.452;16.994;2023-03-05T00:33:51;10.45;;;3.45;;
75628;SDS011;64213;46.452;16.994;2023-03-05T00:36:55;10.52;;;2.37;;
75628;SDS011;64213;46.452;16.994;2023-03-05T00:39:57;9.30;;;2.80;;
75628;SDS011;64213;46.452;16.994;2023-03-05T00:42:59;10.93;;;3.35;;
75628;SDS011;64213;46.452;16.994;2023-03-05T00:46:02;9.82;;;3.95;;
75628;SDS011;64213;46.452;16.994;2023-03-05T00:49:04;15.18;;;3.20;;
75628;SDS011;64213;46.452;16.994;2023-03-05T00:52:06;11.07;;;3.85;;
75628;SDS011;64213;46.452;16.994;2023-03-05T00:55:08;8.83;;;2.63;;
75628;SDS011;64213;46.452;16.994;2023-03-05T00:58:11;10.52;;;2.55;;
75628;SDS011;64213;46.452;16.994;2023-03-05T01:01:13;10.48;;;3.78;;
75628;SDS011;64213;46.452;16.994;2023-03-05T01:04:17;13.32;;;3.95;;
75628;SDS011;64213;46.452;16.994;2023-03-05T01:07:19;7.85;;;2.50;;
75628;SDS011;64213;46.452;16.994;2023-03-05T01:10:22;14.43;;;3.53;;
75628;SDS011;64213;46.452;16.994;2023-03-05T01:13:27;11.43;;;3.60;;
75628;SDS011;64213;46.452;16.994;2023-03-05T01:16:29;12.63;;;3.85;;
75628;SDS011;64213;46.452;16.994;2023-03-05T01:19:31;7.87;;;2.87;;
75628;SDS011;64213;46.452;16.994;2023-03-05T01:22:33;13.35;;;3.55;;
75628;SDS011;64213;46.452;16.994;2023-03-05T01:25:35;9.37;;;2.93;;
75628;SDS011;64213;46.452;16.994;2023-03-05T01:28:38;11.77;;;3.30;;
75628;SDS011;64213;46.452;16.994;2023-03-05T01:31:40;12.13;;;3.37;;
75628;SDS011;64213;46.452;16.994;2023-03-05T01:34:42;12.65;;;4.30;;
75628;SDS011;64213;46.452;16.994;2023-03-05T01:37:45;11.10;;;4.03;;
75628;SDS011;64213;46.452;16.994;2023-03-05T01:40:47;13.27;;;3.50;;
75628;SDS011;64213;46.452;16.994;2023-03-05T01:43:50;8.93;;;2.55;;
75628;SDS011;64213;46.452;16.994;2023-03-05T01:46:53;10.13;;;2.30;;
75628;SDS011;64213;46.452;16.994;2023-03-05T01:49:55;10.55;;;3.40;;
75628;SDS011;64213;46.452;16.994;2023-03-05T01:52:58;10.57;;;3.10;;
75628;SDS011;64213;46.452;16.994;2023-03-05T01:56:06;11.73;;;3.67;;
75628;SDS011;64213;46.452;16.994;2023-03-05T01:59:10;12.10;;;4.03;;
75628;SDS011;64213;46.452;16.994;2023-03-05T02:02:15;11.20;;;3.92;;
75628;SDS011;64213;46.452;16.994;2023-03-05T02:05:20;11.90;;;3.15;;
75628;SDS011;64213;46.452;16.994;2023-03-05T02:08:27;12.40;;;3.95;;
75628;SDS011;64213;46.452;16.994;2023-03-05T02:11:29;13.90;;;3.50;;
75628;SDS011;64213;46.452;16.994;2023-03-05T02:14:31;12.18;;;3.17;;
75628;SDS011;64213;46.452;16.994;2023-03-05T02:17:34;10.80;;;3.40;;
75628;SDS011;64213;46.452;16.994;2023-03-05T02:20:44;13.23;;;4.40;;
75628;SDS011;64213;46.452;16.994;2023-03-05T02:23:58;13.55;;;4.10;;
75628;SDS011;64213;46.452;16.994;2023-03-05T02:27:00;13.73;;;3.80;;
75628;SDS011;64213;46.452;16.994;2023-03-05T02:30:05;12.68;;;4.07;;
75628;SDS011;64213;46.452;16.994;2023-03-05T02:33:08;14.02;;;4.25;;
75628;SDS011;64213;46.452;16.994;2023-03-05T02:36:11;14.07;;;3.62;;
75628;SDS011;64213;46.452;16.994;2023-03-05T02:39:13;13.60;;;4.10;;
75628;SDS011;64213;46.452;16.994;2023-03-05T02:42:15;14.03;;;3.97;;
75628;SDS011;64213;46.452;16.994;2023-03-05T02:45:18;13.65;;;4.30;;
75628;SDS011;64213;46.452;16.994;2023-03-05T02:48:20;12.18;;;3.87;;
75628;SDS011;64213;46.452;16.994;2023-03-05T02:51:22;13.23;;;4.00;;
75628;SDS011;64213;46.452;16.994;2023-03-05T02:54:24;12.65;;;4.15;;
75628;SDS011;64213;46.452;16.994;2023-03-05T02:57:26;11.60;;;3.93;;
75628;SDS011;64213;46.452;16.994;2023-03-05T03:00:28;11.68;;;3.67;;
75628;SDS011;64213;46.452;16.994;2023-03-05T03:03:31;13.82;;;4.03;;
75628;SDS011;64213;46.452;16.994;2023-03-05T03:06:33;14.18;;;4.18;;
75628;SDS011;64213;46.452;16.994;2023-03-05T03:09:35;13.32;;;4.37;;
75628;SDS011;64213;46.452;16.994;2023-03-05T03:12:38;12.33;;;3.93;;
75628;SDS011;64213;46.452;16.994;2023-03-05T03:15:41;11.73;;;3.80;;
75628;SDS011;64213;46.452;16.994;2023-03-05T03:18:43;14.13;;;3.47;;
75628;SDS011;64213;46.452;16.994;2023-03-05T03:21:48;12.70;;;4.20;;
75628;SDS011;64213;46.452;16.994;2023-03-05T03:24:50;14.00;;;4.70;;
75628;SDS011;64213;46.452;16.994;2023-03-05T03:27:52;11.97;;;3.47;;
75628;SDS011;64213;46.452;16.994;2023-03-05T03:30:54;13.52;;;3.92;;
75628;SDS011;64213;46.452;16.994;2023-03-05T03:33:57;13.52;;;3.78;;
75628;SDS011;64213;46.452;16.994;2023-03-05T03:36:59;12.18;;;3.65;;
75628;SDS011;64213;46.452;16.994;2023-03-05T03:40:02;12.73;;;3.80;;
75628;SDS011;64213;46.452;16.994;2023-03-05T03:43:06;10.00;;;3.27;;
75628;SDS011;64213;46.452;16.994;2023-03-05T03:46:08;11.85;;;3.95;;
75628;SDS011;64213;46.452;16.994;2023-03-05T03:49:17;13.55;;;3.17;;
75628;SDS011;64213;46.452;16.994;2023-03-05T03:52:25;14.60;;;4.57;;
75628;SDS011;64213;46.452;16.994;2023-03-05T03:55:27;11.45;;;3.65;;
75628;SDS011;64213;46.452;16.994;2023-03-05T03:58:29;12.47;;;3.70;;
75628;SDS011;64213;46.452;16.994;2023-03-05T04:01:31;13.98;;;3.50;;
75628;SDS011;64213;46.452;16.994;2023-03-05T04:04:33;17.80;;;3.97;;
75628;SDS011;64213;46.452;16.994;2023-03-05T04:07:35;14.25;;;3.53;;
75628;SDS011;64213;46.452;16.994;2023-03-05T04:10:37;12.90;;;3.90;;
75628;SDS011;64213;46.452;16.994;2023-03-05T04:13:40;10.70;;;3.17;;
75628;SDS011;64213;46.452;16.994;2023-03-05T04:16:42;14.10;;;3.72;;
75628;SDS011;64213;46.452;16.994;2023-03-05T04:19:44;11.40;;;4.03;;
75628;SDS011;64213;46.452;16.994;2023-03-05T04:22:46;11.35;;;3.62;;
75628;SDS011;64213;46.452;16.994;2023-03-05T04:25:48;12.18;;;3.87;;
75628;SDS011;64213;46.452;16.994;2023-03-05T04:28:51;12.27;;;3.80;;
75628;SDS011;64213;46.452;16.994;2023-03-05T04:31:53;13.73;;;3.45;;
75628;SDS011;64213;46.452;16.994;2023-03-05T04:34:55;11.93;;;3.85;;
75628;SDS011;64213;46.452;16.994;2023-03-05T04:37:58;11.07;;;3.03;;
75628;SDS011;64213;46.452;16.994;2023-03-05T04:41:00;14.60;;;3.72;;
75628;SDS011;64213;46.452;16.994;2023-03-05T04:44:02;12.73;;;3.23;;
75628;SDS011;64213;46.452;16.994;2023-03-05T04:47:04;11.10;;;3.50;;
75628;SDS011;64213;46.452;16.994;2023-03-05T04:50:07;11.65;;;3.65;;
75628;SDS011;64213;46.452;16.994;2023-03-05T04:53:09;12.18;;;3.35;;
75628;SDS011;64213;46.452;16.994;2023-03-05T04:56:11;14.15;;;3.83;;
75628;SDS011;64213;46.452;16.994;2023-03-05T04:59:13;13.53;;;3.67;;
75628;SDS011;64213;46.452;16.994;2023-03-05T05:02:16;11.30;;;3.53;;
75628;SDS011;64213;46.452;16.994;2023-03-05T05:05:19;10.43;;;3.35;;
75628;SDS011;64213;46.452;16.994;2023-03-05T05:08:24;14.05;;;3.65;;
75628;SDS011;64213;46.452;16.994;2023-03-05T05:11:27;12.63;;;4.47;;
75628;SDS011;64213;46.452;16.994;2023-03-05T05:14:29;16.10;;;4.27;;
75628;SDS011;64213;46.452;16.994;2023-03-05T05:17:31;13.40;;;4.40;;
75628;SDS011;64213;46.452;16.994;2023-03-05T05:20:33;12.05;;;3.97;;
75628;SDS011;64213;46.452;16.994;2023-03-05T05:23:35;12.18;;;3.30;;
75628;SDS011;64213;46.452;16.994;2023-03-05T05:26:37;12.63;;;3.78;;
75628;SDS011;64213;46.452;16.994;2023-03-05T05:29:42;11.47;;;3.63;;
75628;SDS011;64213;46.452;16.994;2023-03-05T05:32:44;11.73;;;4.00;;
75628;SDS011;64213;46.452;16.994;2023-03-05T05:35:46;13.60;;;3.37;;
75628;SDS011;64213;46.452;16.994;2023-03-05T05:38:48;11.88;;;4.00;;
75628;SDS011;64213;46.452;16.994;2023-03-05T05:41:51;11.35;;;3.37;;
75628;SDS011;64213;46.452;16.994;2023-03-05T05:44:53;13.03;;;4.27;;
75628;SDS011;64213;46.452;16.994;2023-03-05T05:47:56;13.48;;;3.90;;
75628;SDS011;64213;46.452;16.994;2023-03-05T05:50:58;13.62;;;4.60;;
75628;SDS011;64213;46.452;16.994;2023-03-05T05:54:00;12.77;;;4.03;;
75628;SDS011;64213;46.452;16.994;2023-03-05T05:57:02;13.75;;;4.30;;
75628;SDS011;64213;46.452;16.994;2023-03-05T06:00:05;15.83;;;4.10;;
75628;SDS011;64213;46.452;16.994;2023-03-05T06:03:10;13.05;;;4.47;;
75628;SDS011;64213;46.452;16.994;2023-03-05T06:06:13;11.63;;;4.45;;
75628;SDS011;64213;46.452;16.994;2023-03-05T06:09:17;12.07;;;4.00;;
75628;SDS011;64213;46.452;16.994;2023-03-05T06:12:19;14.68;;;3.90;;
75628;SDS011;64213;46.452;16.994;2023-03-05T06:15:21;13.83;;;4.40;;
75628;SDS011;64213;46.452;16.994;2023-03-05T06:18:23;12.45;;;4.40;;
75628;SDS011;64213;46.452;16.994;2023-03-05T06:21:26;13.15;;;4.80;;
75628;SDS011;64213;46.452;16.994;2023-03-05T06:24:28;14.38;;;4.82;;
75628;SDS011;64213;46.452;16.994;2023-03-05T06:27:30;16.48;;;5.82;;
75628;SDS011;64213;46.452;16.994;2023-03-05T06:30:32;17.30;;;5.83;;
75628;SDS011;64213;46.452;16.994;2023-03-05T06:33:34;17.75;;;5.93;;
75628;SDS011;64213;46.452;16.994;2023-03-05T06:36:37;14.65;;;5.28;;
75628;SDS011;64213;46.452;16.994;2023-03-05T06:39:39;16.08;;;5.75;;
75628;SDS011;64213;46.452;16.994;2023-03-05T06:42:41;17.42;;;5.50;;
75628;SDS011;64213;46.452;16.994;2023-03-05T06:45:43;17.07;;;5.10;;
75628;SDS011;64213;46.452;16.994;2023-03-05T06:48:46;17.95;;;6.32;;
75628;SDS011;64213;46.452;16.994;2023-03-05T06:51:49;13.98;;;5.05;;
75628;SDS011;64213;46.452;16.994;2023-03-05T06:54:51;18.20;;;5.53;;
75628;SDS011;64213;46.452;16.994;2023-03-05T06:57:56;17.77;;;6.60;;
75628;SDS011;64213;46.452;16.994;2023-03-05T07:00:58;18.03;;;5.77;;
75628;SDS011;64213;46.452;16.994;2023-03-05T07:04:01;18.30;;;5.90;;
75628;SDS011;64213;46.452;16.994;2023-03-05T07:07:03;18.90;;;6.05;;
75628;SDS011;64213;46.452;16.994;2023-03-05T07:10:06;17.55;;;5.53;;
75628;SDS011;64213;46.452;16.994;2023-03-05T07:13:09;19.60;;;6.22;;
75628;SDS011;64213;46.452;16.994;2023-03-05T07:16:16;15.93;;;5.53;;
75628;SDS011;64213;46.452;16.994;2023-03-05T07:19:20;21.12;;;6.65;;
75628;SDS011;64213;46.452;16.994;2023-03-05T07:22:22;15.32;;;5.10;;
75628;SDS011;64213;46.452;16.994;2023-03-05T07:25:24;21.95;;;6.12;;
75628;SDS011;64213;46.452;16.994;2023-03-05T07:28:27;19.02;;;6.30;;
75628;SDS011;64213;46.452;16.994;2023-03-05T07:31:29;18.57;;;6.03;;
75628;SDS011;64213;46.452;16.994;2023-03-05T07:34:32;15.48;;;5.68;;
75628;SDS011;64213;46.452;16.994;2023-03-05T07:37:34;23.02;;;7.55;;
75628;SDS011;64213;46.452;16.994;2023-03-05T07:40:37;21.27;;;8.40;;
75628;SDS011;64213;46.452;16.994;2023-03-05T07:43:39;20.98;;;7.87;;
75628;SDS011;64213;46.452;16.994;2023-03-05T07:46:42;18.80;;;7.03;;
75628;SDS011;64213;46.452;16.994;2023-03-05T07:49:44;18.27;;;6.85;;
75628;SDS011;64213;46.452;16.994;2023-03-05T07:52:46;20.05;;;8.05;;
75628;SDS011;64213;46.452;16.994;2023-03-05T07:55:48;19.60;;;6.75;;
75628;SDS011;64213;46.452;16.994;2023-03-05T07:58:51;20.65;;;7.35;;
75628;SDS011;64213;46.452;16.994;2023-03-05T08:01:53;20.83;;;8.03;;
75628;SDS011;64213;46.452;16.994;2023-03-05T08:04:56;19.62;;;6.80;;
75628;SDS011;64213;46.452;16.994;2023-03-05T08:07:58;15.50;;;6.28;;
75628;SDS011;64213;46.452;16.994;2023-03-05T08:11:10;16.62;;;5.95;;
75628;SDS011;64213;46.452;16.994;2023-03-05T08:14:14;19.27;;;6.70;;
75628;SDS011;64213;46.452;16.994;2023-03-05T08:17:16;19.90;;;7.10;;
75628;SDS011;64213;46.452;16.994;2023-03-05T08:20:18;13.82;;;4.22;;
75628;SDS011;64213;46.452;16.994;2023-03-05T08:23:21;18.58;;;7.20;;
75628;SDS011;64213;46.452;16.994;2023-03-05T08:26:24;22.02;;;6.87;;
75628;SDS011;64213;46.452;16.994;2023-03-05T08:29:28;20.50;;;7.20;;
75628;SDS011;64213;46.452;16.994;2023-03-05T08:32:31;20.70;;;7.80;;
75628;SDS011;64213;46.452;16.994;2023-03-05T08:35:33;17.58;;;6.85;;
75628;SDS011;64213;46.452;16.994;2023-03-05T08:38:35;19.30;;;6.85;;
75628;SDS011;64213;46.452;16.994;2023-03-05T08:41:37;20.98;;;6.90;;
75628;SDS011;64213;46.452;16.994;2023-03-05T08:44:40;18.08;;;6.90;;
75628;SDS011;64213;46.452;16.994;2023-03-05T08:47:42;16.07;;;5.77;;
75628;SDS011;64213;46.452;16.994;2023-03-05T08:50:44;22.10;;;6.97;;
75628;SDS011;64213;46.452;16.994;2023-03-05T08:53:46;17.15;;;5.78;;
75628;SDS011;64213;46.452;16.994;2023-03-05T08:56:48;18.12;;;5.78;;
75628;SDS011;64213;46.452;16.994;2023-03-05T08:59:50;14.38;;;5.62;;
75628;SDS011;64213;46.452;16.994;2023-03-05T09:02:52;18.27;;;6.93;;
75628;SDS011;64213;46.452;16.994;2023-03-05T09:06:02;18.10;;;6.78;;
75628;SDS011;64213;46.452;16.994;2023-03-05T09:09:06;18.00;;;6.53;;
75628;SDS011;64213;46.452;16.994;2023-03-05T09:12:10;18.65;;;6.62;;
75628;SDS011;64213;46.452;16.994;2023-03-05T09:15:14;17.23;;;6.82;;
75628;SDS011;64213;46.452;16.994;2023-03-05T09:18:16;23.43;;;8.00;;
75628;SDS011;64213;46.452;16.994;2023-03-05T09:21:18;21.05;;;7.70;;
75628;SDS011;64213;46.452;16.994;2023-03-05T09:24:20;23.85;;;7.32;;
75628;SDS011;64213;46.452;16.994;2023-03-05T09:27:23;19.27;;;7.03;;
75628;SDS011;64213;46.452;16.994;2023-03-05T09:30:25;19.52;;;7.45;;
75628;SDS011;64213;46.452;16.994;2023-03-05T09:33:27;19.00;;;7.30;;
75628;SDS011;64213;46.452;16.994;2023-03-05T09:36:29;16.42;;;5.87;;
75628;SDS011;64213;46.452;16.994;2023-03-05T09:39:32;20.83;;;7.50;;
75628;SDS011;64213;46.452;16.994;2023-03-05T09:46:01;12.25;;;4.80;;
75628;SDS011;64213;46.452;16.994;2023-03-05T09:52:40;16.58;;;6.35;;
75628;SDS011;64213;46.452;16.994;2023-03-05T09:55:51;11.23;;;3.55;;
75628;SDS011;64213;46.452;16.994;2023-03-05T09:58:58;20.05;;;5.93;;
75628;SDS011;64213;46.452;16.994;2023-03-05T10:02:11;16.55;;;6.35;;
75628;SDS011;64213;46.452;16.994;2023-03-05T10:15:43;19.27;;;7.05;;
75628;SDS011;64213;46.452;16.994;2023-03-05T10:22:20;12.20;;;4.57;;
75628;SDS011;64213;46.452;16.994;2023-03-05T10:28:34;13.77;;;4.68;;
75628;SDS011;64213;46.452;16.994;2023-03-05T10:31:45;15.43;;;5.72;;
75628;SDS011;64213;46.452;16.994;2023-03-05T10:45:17;14.05;;;4.60;;
75628;SDS011;64213;46.452;16.994;2023-03-05T10:48:26;14.25;;;4.65;;
75628;SDS011;64213;46.452;16.994;2023-03-05T10:55:15;13.23;;;3.83;;
75628;SDS011;64213;46.452;16.994;2023-03-05T10:58:22;16.62;;;5.80;;
75628;SDS011;64213;46.452;16.994;2023-03-05T11:01:26;14.48;;;4.90;;
75628;SDS011;64213;46.452;16.994;2023-03-05T11:04:29;13.55;;;4.60;;
75628;SDS011;64213;46.452;16.994;2023-03-05T11:07:39;12.68;;;4.43;;
75628;SDS011;64213;46.452;16.994;2023-03-05T11:10:41;13.87;;;3.87;;
75628;SDS011;64213;46.452;16.994;2023-03-05T11:16:59;11.40;;;3.35;;
75628;SDS011;64213;46.452;16.994;2023-03-05T11:23:26;10.25;;;3.17;;
75628;SDS011;64213;46.452;16.994;2023-03-05T11:26:29;10.63;;;3.53;;
75628;SDS011;64213;46.452;16.994;2023-03-05T11:29:31;10.60;;;3.30;;
75628;SDS011;64213;46.452;16.994;2023-03-05T11:32:35;11.63;;;4.03;;
75628;SDS011;64213;46.452;16.994;2023-03-05T11:35:39;10.80;;;3.65;;
75628;SDS011;64213;46.452;16.994;2023-03-05T11:38:44;9.48;;;3.50;;
75628;SDS011;64213;46.452;16.994;2023-03-05T11:45:02;11.32;;;3.80;;
75628;SDS011;64213;46.452;16.994;2023-03-05T11:48:19;11.23;;;3.95;;
75628;SDS011;64213;46.452;16.994;2023-03-05T11:51:34;11.20;;;3.62;;
75628;SDS011;64213;46.452;16.994;2023-03-05T11:58:10;11.30;;;3.83;;
75628;SDS011;64213;46.452;16.994;2023-03-05T12:01:37;9.73;;;3.30;;
75628;SDS011;64213;46.452;16.994;2023-03-05T12:04:50;11.32;;;3.42;;
75628;SDS011;64213;46.452;16.994;2023-03-05T12:07:54;11.00;;;3.00;;
75628;SDS011;64213;46.452;16.994;2023-03-05T12:11:06;10.93;;;3.35;;
75628;SDS011;64213;46.452;16.994;2023-03-05T12:27:32;9.48;;;3.00;;
75628;SDS011;64213;46.452;16.994;2023-03-05T12:33:42;9.45;;;2.83;;
75628;SDS011;64213;46.452;16.994;2023-03-05T12:36:45;6.45;;;1.73;;
75628;SDS011;64213;46.452;16.994;2023-03-05T12:43:02;8.65;;;2.78;;
75628;SDS011;64213;46.452;16.994;2023-03-05T12:46:24;10.17;;;3.37;;
75628;SDS011;64213;46.452;16.994;2023-03-05T12:49:34;11.25;;;3.40;;
75628;SDS011;64213;46.452;16.994;2023-03-05T12:52:40;10.57;;;3.40;;
75628;SDS011;64213;46.452;16.994;2023-03-05T12:55:56;11.12;;;3.03;;
75628;SDS011;64213;46.452;16.994;2023-03-05T12:59:03;9.43;;;2.80;;
75628;SDS011;64213;46.452;16.994;2023-03-05T13:05:34;9.80;;;2.97;;
75628;SDS011;64213;46.452;16.994;2023-03-05T13:08:38;11.00;;;3.72;;
75628;SDS011;64213;46.452;16.994;2023-03-05T13:11:41;10.93;;;3.37;;
75628;SDS011;64213;46.452;16.994;2023-03-05T13:14:54;10.48;;;3.20;;
75628;SDS011;64213;46.452;16.994;2023-03-05T13:18:02;9.07;;;2.33;;
75628;SDS011;64213;46.452;16.994;2023-03-05T13:21:13;11.43;;;3.53;;
75628;SDS011;64213;46.452;16.994;2023-03-05T13:24:20;11.68;;;3.67;;
75628;SDS011;64213;46.452;16.994;2023-03-05T13:27:28;11.15;;;4.12;;
75628;SDS011;64213;46.452;16.994;2023-03-05T13:30:32;11.50;;;3.35;;
75628;SDS011;64213;46.452;16.994;2023-03-05T13:33:35;11.60;;;3.47;;
75628;SDS011;64213;46.452;16.994;2023-03-05T13:36:44;10.52;;;3.25;;
75628;SDS011;64213;46.452;16.994;2023-03-05T13:39:58;7.32;;;2.35;;
75628;SDS011;64213;46.452;16.994;2023-03-05T13:43:17;8.23;;;2.60;;
75628;SDS011;64213;46.452;16.994;2023-03-05T13:46:27;8.32;;;2.33;;
75628;SDS011;64213;46.452;16.994;2023-03-05T13:49:44;10.33;;;3.07;;
75628;SDS011;64213;46.452;16.994;2023-03-05T13:52:48;12.32;;;3.40;;
75628;SDS011;64213;46.452;16.994;2023-03-05T13:55:52;8.40;;;2.37;;
75628;SDS011;64213;46.452;16.994;2023-03-05T13:58:57;10.55;;;3.08;;
75628;SDS011;64213;46.452;16.994;2023-03-05T14:02:02;9.93;;;2.95;;
75628;SDS011;64213;46.452;16.994;2023-03-05T14:05:28;13.13;;;3.57;;
75628;SDS011;64213;46.452;16.994;2023-03-05T14:08:32;12.05;;;3.50;;
75628;SDS011;64213;46.452;16.994;2023-03-05T14:11:35;10.63;;;3.50;;
75628;SDS011;64213;46.452;16.994;2023-03-05T14:14:38;11.10;;;3.17;;
75628;SDS011;64213;46.452;16.994;2023-03-05T14:17:41;10.88;;;3.53;;
75628;SDS011;64213;46.452;16.994;2023-03-05T14:24:10;11.65;;;3.40;;
75628;SDS011;64213;46.452;16.994;2023-03-05T14:27:14;9.98;;;3.55;;
75628;SDS011;64213;46.452;16.994;2023-03-05T14:30:30;9.43;;;3.03;;
75628;SDS011;64213;46.452;16.994;2023-03-05T14:33:36;11.45;;;4.20;;
75628;SDS011;64213;46.452;16.994;2023-03-05T14:36:38;13.10;;;4.40;;
75628;SDS011;64213;46.452;16.994;2023-03-05T14:39:52;14.35;;;3.37;;
75628;SDS011;64213;46.452;16.994;2023-03-05T14:43:00;13.65;;;5.18;;
75628;SDS011;64213;46.452;16.994;2023-03-05T14:46:06;13.48;;;4.95;;
75628;SDS011;64213;46.452;16.994;2023-03-05T14:49:09;11.98;;;4.07;;
75628;SDS011;64213;46.452;16.994;2023-03-05T14:52:16;11.07;;;3.90;;
75628;SDS011;64213;46.452;16.994;2023-03-05T14:55:22;12.77;;;4.40;;
75628;SDS011;64213;46.452;16.994;2023-03-05T14:58:27;11.48;;;4.20;;
75628;SDS011;64213;46.452;16.994;2023-03-05T15:01:33;12.35;;;4.30;;
75628;SDS011;64213;46.452;16.994;2023-03-05T15:04:38;15.57;;;3.55;;
75628;SDS011;64213;46.452;16.994;2023-03-05T15:07:43;10.37;;;2.90;;
75628;SDS011;64213;46.452;16.994;2023-03-05T15:10:47;13.88;;;4.28;;
75628;SDS011;64213;46.452;16.994;2023-03-05T15:13:50;14.35;;;4.60;;
75628;SDS011;64213;46.452;16.994;2023-03-05T15:16:53;13.27;;;3.75;;
75628;SDS011;64213;46.452;16.994;2023-03-05T15:19:56;13.55;;;5.15;;
75628;SDS011;64213;46.452;16.994;2023-03-05T15:22:59;10.67;;;3.83;;
75628;SDS011;64213;46.452;16.994;2023-03-05T15:26:03;12.82;;;4.43;;
75628;SDS011;64213;46.452;16.994;2023-03-05T15:29:08;12.45;;;3.90;;
75628;SDS011;64213;46.452;16.994;2023-03-05T15:32:12;13.07;;;4.32;;
75628;SDS011;64213;46.452;16.994;2023-03-05T15:35:14;10.68;;;3.42;;
75628;SDS011;64213;46.452;16.994;2023-03-05T15:38:17;12.50;;;4.20;;
75628;SDS011;64213;46.452;16.994;2023-03-05T15:41:21;10.70;;;3.50;;
75628;SDS011;64213;46.452;16.994;2023-03-05T15:44:24;13.90;;;4.97;;
75628;SDS011;64213;46.452;16.994;2023-03-05T15:47:27;10.98;;;4.18;;
75628;SDS011;64213;46.452;16.994;2023-03-05T15:50:34;12.20;;;4.30;;
75628;SDS011;64213;46.452;16.994;2023-03-05T15:53:37;12.53;;;4.53;;
75628;SDS011;64213;46.452;16.994;2023-03-05T15:56:40;11.60;;;3.80;;
75628;SDS011;64213;46.452;16.994;2023-03-05T15:59:43;12.20;;;4.28;;
75628;SDS011;64213;46.452;16.994;2023-03-05T16:02:48;15.15;;;5.18;;
75628;SDS011;64213;46.452;16.994;2023-03-05T16:05:52;11.65;;;4.10;;
75628;SDS011;64213;46.452;16.994;2023-03-05T16:08:59;13.03;;;4.33;;
75628;SDS011;64213;46.452;16.994;2023-03-05T16:12:10;14.70;;;4.85;;
75628;SDS011;64213;46.452;16.994;2023-03-05T16:15:20;10.45;;;3.60;;
75628;SDS011;64213;46.452;16.994;2023-03-05T16:18:24;12.52;;;4.28;;
75628;SDS011;64213;46.452;16.994;2023-03-05T16:21:27;15.93;;;5.68;;
75628;SDS011;64213;46.452;16.994;2023-03-05T16:24:32;13.03;;;4.07;;
75628;SDS011;64213;46.452;16.994;2023-03-05T16:27:35;14.07;;;5.05;;
75628;SDS011;64213;46.452;16.994;2023-03-05T16:30:38;14.00;;;4.68;;
75628;SDS011;64213;46.452;16.994;2023-03-05T16:33:47;13.27;;;4.35;;
75628;SDS011;64213;46.452;16.994;2023-03-05T16:36:50;17.62;;;6.57;;
75628;SDS011;64213;46.452;16.994;2023-03-05T16:39:56;15.83;;;4.93;;
75628;SDS011;64213;46.452;16.994;2023-03-05T16:43:00;15.82;;;5.32;;
75628;SDS011;64213;46.452;16.994;2023-03-05T16:46:03;19.60;;;6.57;;
75628;SDS011;64213;46.452;16.994;2023-03-05T16:49:09;22.33;;;6.53;;
75628;SDS011;64213;46.452;16.994;2023-03-05T16:52:15;17.52;;;6.60;;
75628;SDS011;64213;46.452;16.994;2023-03-05T16:55:21;13.30;;;5.03;;
75628;SDS011;64213;46.452;16.994;2023-03-05T16:58:26;14.65;;;5.18;;
75628;SDS011;64213;46.452;16.994;2023-03-05T17:01:29;20.42;;;7.57;;
75628;SDS011;64213;46.452;16.994;2023-03-05T17:04:32;16.08;;;5.72;;
75628;SDS011;64213;46.452;16.994;2023-03-05T17:07:35;13.98;;;4.93;;
75628;SDS011;64213;46.452;16.994;2023-03-05T17:10:40;16.97;;;6.37;;
75628;SDS011;64213;46.452;16.994;2023-03-05T17:13:44;17.65;;;5.97;;
75628;SDS011;64213;46.452;16.994;2023-03-05T17:16:53;21.27;;;7.72;;
75628;SDS011;64213;46.452;16.994;2023-03-05T17:19:56;17.58;;;6.47;;
75628;SDS011;64213;46.452;16.994;2023-03-05T17:23:00;21.17;;;7.28;;
75628;SDS011;64213;46.452;16.994;2023-03-05T17:26:04;18.53;;;6.60;;
75628;SDS011;64213;46.452;16.994;2023-03-05T17:29:10;19.80;;;6.55;;
75628;SDS011;64213;46.452;16.994;2023-03-05T17:32:14;95.05;;;33.03;;
75628;SDS011;64213;46.452;16.994;2023-03-05T17:35:18;75.85;;;24.75;;
75628;SDS011;64213;46.452;16.994;2023-03-05T17:38:22;55.63;;;19.48;;
75628;SDS011;64213;46.452;16.994;2023-03-05T17:41:26;67.90;;;24.20;;
75628;SDS011;64213;46.452;16.994;2023-03-05T17:44:28;143.80;;;45.80;;
75628;SDS011;64213;46.452;16.994;2023-03-05T17:47:33;74.50;;;26.48;;
75628;SDS011;64213;46.452;16.994;2023-03-05T17:50:40;56.00;;;18.90;;
75628;SDS011;64213;46.452;16.994;2023-03-05T17:53:43;25.75;;;10.07;;
75628;SDS011;64213;46.452;16.994;2023-03-05T17:56:47;29.23;;;11.23;;
75628;SDS011;64213;46.452;16.994;2023-03-05T17:59:50;21.90;;;7.55;;
75628;SDS011;64213;46.452;16.994;2023-03-05T18:02:54;16.35;;;5.95;;
75628;SDS011;64213;46.452;16.994;2023-03-05T18:06:00;13.70;;;5.05;;
75628;SDS011;64213;46.452;16.994;2023-03-05T18:09:05;18.67;;;7.00;;
75628;SDS011;64213;46.452;16.994;2023-03-05T18:12:08;21.37;;;8.63;;
75628;SDS011;64213;46.452;16.994;2023-03-05T18:15:12;21.85;;;8.48;;
75628;SDS011;64213;46.452;16.994;2023-03-05T18:18:17;33.10;;;13.93;;
75628;SDS011;64213;46.452;16.994;2023-03-05T18:21:21;20.50;;;6.70;;
75628;SDS011;64213;46.452;16.994;2023-03-05T18:24:28;19.27;;;7.97;;
75628;SDS011;64213;46.452;16.994;2023-03-05T18:27:31;20.67;;;7.30;;
75628;SDS011;64213;46.452;16.994;2023-03-05T18:30:34;16.15;;;7.05;;
75628;SDS011;64213;46.452;16.994;2023-03-05T18:33:38;16.42;;;6.85;;
75628;SDS011;64213;46.452;16.994;2023-03-05T18:36:42;19.73;;;8.20;;
75628;SDS011;64213;46.452;16.994;2023-03-05T18:39:44;19.00;;;7.60;;
75628;SDS011;64213;46.452;16.994;2023-03-05T18:42:49;20.67;;;7.63;;
75628;SDS011;64213;46.452;16.994;2023-03-05T18:45:53;19.37;;;7.28;;
75628;SDS011;64213;46.452;16.994;2023-03-05T18:49:03;17.55;;;6.90;;
75628;SDS011;64213;46.452;16.994;2023-03-05T18:52:08;17.08;;;6.75;;
75628;SDS011;64213;46.452;16.994;2023-03-05T18:55:17;18.42;;;6.68;;
75628;SDS011;64213;46.452;16.994;2023-03-05T18:58:23;15.77;;;6.03;;
75628;SDS011;64213;46.452;16.994;2023-03-05T19:01:29;20.12;;;7.47;;
75628;SDS011;64213;46.452;16.994;2023-03-05T19:04:33;21.48;;;7.87;;
75628;SDS011;64213;46.452;16.994;2023-03-05T19:07:37;25.10;;;9.88;;
75628;SDS011;64213;46.452;16.994;2023-03-05T19:10:42;25.55;;;9.77;;
75628;SDS011;64213;46.452;16.994;2023-03-05T19:13:46;25.37;;;9.80;;